sensor_id;sensor_type;location;lat;lon;timestamp;P1;durP1;ratioP1;P2;durP2;ratioP2
39410;SDS011;26579;43.238;23.124;2023-05-10T00:01:04;8.38;;;4.18;;
39410;SDS011;26579;43.238;23.124;2023-05-10T00:03:30;4.75;;;3.63;;
39410;SDS011;26579;43.238;23.124;2023-05-10T00:05:56;4.82;;;3.45;;
39410;SDS011;26579;43.238;23.124;2023-05-10T00:08:21;5.97;;;3.85;;
39410;SDS011;26579;43.238;23.124;2023-05-10T00:10:47;5.50;;;3.35;;
39410;SDS011;26579;43.238;23.124;2023-05-10T00:13:13;9.70;;;5.30;;
39410;SDS011;26579;43.238;23.124;2023-05-10T00:15:38;8.13;;;4.20;;
39410;SDS011;26579;43.238;23.124;2023-05-10T00:18:04;6.63;;;4.07;;
39410;SDS011;26579;43.238;23.124;2023-05-10T00:20:30;5.63;;;4.03;;
39410;SDS011;26579;43.238;23.124;2023-05-10T00:22:55;7.72;;;3.72;;
39410;SDS011;26579;43.238;23.124;2023-05-10T00:25:21;7.43;;;3.60;;
39410;SDS011;26579;43.238;23.124;2023-05-10T00:27:47;8.15;;;3.25;;
39410;SDS011;26579;43.238;23.124;2023-05-10T00:30:13;5.20;;;3.30;;
39410;SDS011;26579;43.238;23.124;2023-05-10T00:32:38;6.28;;;2.92;;
39410;SDS011;26579;43.238;23.124;2023-05-10T00:35:04;5.80;;;3.10;;
39410;SDS011;26579;43.238;23.124;2023-05-10T00:37:30;7.85;;;3.10;;
39410;SDS011;26579;43.238;23.124;2023-05-10T00:39:56;6.53;;;3.35;;
39410;SDS011;26579;43.238;23.124;2023-05-10T00:42:21;8.80;;;3.50;;
39410;SDS011;26579;43.238;23.124;2023-05-10T00:44:47;6.35;;;3.45;;
39410;SDS011;26579;43.238;23.124;2023-05-10T00:47:13;4.03;;;2.60;;
39410;SDS011;26579;43.238;23.124;2023-05-10T00:49:40;3.45;;;2.22;;
39410;SDS011;26579;43.238;23.124;2023-05-10T00:52:06;3.83;;;2.50;;
39410;SDS011;26579;43.238;23.124;2023-05-10T00:54:32;2.78;;;2.00;;
39410;SDS011;26579;43.238;23.124;2023-05-10T00:56:57;4.15;;;2.65;;
39410;SDS011;26579;43.238;23.124;2023-05-10T00:59:23;4.85;;;2.90;;
39410;SDS011;26579;43.238;23.124;2023-05-10T01:01:49;4.88;;;3.22;;
39410;SDS011;26579;43.238;23.124;2023-05-10T01:04:15;5.35;;;3.00;;
39410;SDS011;26579;43.238;23.124;2023-05-10T01:06:42;7.07;;;2.35;;
39410;SDS011;26579;43.238;23.124;2023-05-10T01:09:08;3.80;;;2.30;;
39410;SDS011;26579;43.238;23.124;2023-05-10T01:11:35;3.47;;;1.92;;
39410;SDS011;26579;43.238;23.124;2023-05-10T01:14:02;3.67;;;2.13;;
39410;SDS011;26579;43.238;23.124;2023-05-10T01:16:29;4.78;;;2.47;;
39410;SDS011;26579;43.238;23.124;2023-05-10T01:19:00;5.63;;;2.20;;
39410;SDS011;26579;43.238;23.124;2023-05-10T01:26:48;4.28;;;1.70;;
39410;SDS011;26579;43.238;23.124;2023-05-10T01:34:49;6.75;;;4.70;;
39410;SDS011;26579;43.238;23.124;2023-05-10T01:37:31;8.40;;;3.70;;
39410;SDS011;26579;43.238;23.124;2023-05-10T01:40:13;6.72;;;3.63;;
39410;SDS011;26579;43.238;23.124;2023-05-10T01:42:47;6.60;;;4.47;;
39410;SDS011;26579;43.238;23.124;2023-05-10T01:45:27;6.63;;;4.38;;
39410;SDS011;26579;43.238;23.124;2023-05-10T01:48:07;7.53;;;5.15;;
39410;SDS011;26579;43.238;23.124;2023-05-10T01:50:36;7.55;;;5.65;;
39410;SDS011;26579;43.238;23.124;2023-05-10T01:53:08;8.45;;;6.28;;
39410;SDS011;26579;43.238;23.124;2023-05-10T01:55:38;12.20;;;7.65;;
39410;SDS011;26579;43.238;23.124;2023-05-10T01:58:11;9.32;;;6.22;;
39410;SDS011;26579;43.238;23.124;2023-05-10T02:00:57;11.50;;;8.30;;
39410;SDS011;26579;43.238;23.124;2023-05-10T02:03:25;12.25;;;8.88;;
39410;SDS011;26579;43.238;23.124;2023-05-10T02:05:53;13.13;;;9.73;;
39410;SDS011;26579;43.238;23.124;2023-05-10T02:08:21;13.25;;;9.13;;
39410;SDS011;26579;43.238;23.124;2023-05-10T02:10:48;17.85;;;9.38;;
39410;SDS011;26579;43.238;23.124;2023-05-10T02:13:16;16.52;;;10.63;;
39410;SDS011;26579;43.238;23.124;2023-05-10T02:15:43;16.70;;;10.77;;
39410;SDS011;26579;43.238;23.124;2023-05-10T02:18:15;17.58;;;11.20;;
39410;SDS011;26579;43.238;23.124;2023-05-10T02:20:43;17.00;;;11.48;;
39410;SDS011;26579;43.238;23.124;2023-05-10T02:23:10;17.85;;;11.38;;
39410;SDS011;26579;43.238;23.124;2023-05-10T02:25:36;15.23;;;10.85;;
39410;SDS011;26579;43.238;23.124;2023-05-10T02:28:04;18.15;;;11.80;;
39410;SDS011;26579;43.238;23.124;2023-05-10T02:30:32;16.20;;;11.50;;
39410;SDS011;26579;43.238;23.124;2023-05-10T02:32:59;19.98;;;11.75;;
39410;SDS011;26579;43.238;23.124;2023-05-10T02:35:27;25.10;;;11.82;;
39410;SDS011;26579;43.238;23.124;2023-05-10T02:37:53;19.73;;;11.38;;
39410;SDS011;26579;43.238;23.124;2023-05-10T02:40:20;17.83;;;11.75;;
39410;SDS011;26579;43.238;23.124;2023-05-10T02:42:48;17.75;;;12.32;;
39410;SDS011;26579;43.238;23.124;2023-05-10T02:45:19;20.63;;;13.20;;
39410;SDS011;26579;43.238;23.124;2023-05-10T02:47:48;31.70;;;14.40;;
39410;SDS011;26579;43.238;23.124;2023-05-10T02:50:14;17.35;;;12.55;;
39410;SDS011;26579;43.238;23.124;2023-05-10T02:52:42;20.17;;;13.63;;
39410;SDS011;26579;43.238;23.124;2023-05-10T02:55:11;19.80;;;13.43;;
39410;SDS011;26579;43.238;23.124;2023-05-10T02:57:41;22.05;;;14.13;;
39410;SDS011;26579;43.238;23.124;2023-05-10T03:00:11;21.20;;;13.95;;
39410;SDS011;26579;43.238;23.124;2023-05-10T03:02:37;22.58;;;13.13;;
39410;SDS011;26579;43.238;23.124;2023-05-10T03:05:03;19.45;;;13.07;;
39410;SDS011;26579;43.238;23.124;2023-05-10T03:07:29;19.35;;;13.90;;
39410;SDS011;26579;43.238;23.124;2023-05-10T03:09:55;22.90;;;13.85;;
39410;SDS011;26579;43.238;23.124;2023-05-10T03:12:24;25.10;;;13.93;;
39410;SDS011;26579;43.238;23.124;2023-05-10T03:17:40;27.23;;;11.50;;
39410;SDS011;26579;43.238;23.124;2023-05-10T03:20:10;28.23;;;12.82;;
39410;SDS011;26579;43.238;23.124;2023-05-10T03:22:44;19.05;;;12.50;;
39410;SDS011;26579;43.238;23.124;2023-05-10T03:25:12;18.80;;;12.20;;
39410;SDS011;26579;43.238;23.124;2023-05-10T03:27:41;19.38;;;12.40;;
39410;SDS011;26579;43.238;23.124;2023-05-10T03:30:10;20.02;;;12.50;;
39410;SDS011;26579;43.238;23.124;2023-05-10T03:32:37;20.98;;;13.75;;
39410;SDS011;26579;43.238;23.124;2023-05-10T03:35:07;21.95;;;13.57;;
39410;SDS011;26579;43.238;23.124;2023-05-10T03:37:33;20.05;;;12.85;;
39410;SDS011;26579;43.238;23.124;2023-05-10T03:39:59;22.33;;;13.93;;
39410;SDS011;26579;43.238;23.124;2023-05-10T03:42:25;18.67;;;11.75;;
39410;SDS011;26579;43.238;23.124;2023-05-10T03:44:50;21.40;;;12.95;;
39410;SDS011;26579;43.238;23.124;2023-05-10T03:47:16;19.15;;;12.90;;
39410;SDS011;26579;43.238;23.124;2023-05-10T03:49:42;18.73;;;12.25;;
39410;SDS011;26579;43.238;23.124;2023-05-10T03:52:08;19.52;;;12.70;;
39410;SDS011;26579;43.238;23.124;2023-05-10T03:54:34;22.20;;;12.63;;
39410;SDS011;26579;43.238;23.124;2023-05-10T03:56:59;19.52;;;12.30;;
39410;SDS011;26579;43.238;23.124;2023-05-10T03:59:25;19.48;;;12.35;;
39410;SDS011;26579;43.238;23.124;2023-05-10T04:01:51;20.95;;;13.07;;
39410;SDS011;26579;43.238;23.124;2023-05-10T04:04:17;40.28;;;14.48;;
39410;SDS011;26579;43.238;23.124;2023-05-10T04:06:42;20.95;;;14.00;;
39410;SDS011;26579;43.238;23.124;2023-05-10T04:09:08;66.68;;;16.13;;
39410;SDS011;26579;43.238;23.124;2023-05-10T04:11:34;125.72;;;19.17;;
39410;SDS011;26579;43.238;23.124;2023-05-10T04:13:59;96.03;;;16.85;;
39410;SDS011;26579;43.238;23.124;2023-05-10T04:16:25;68.10;;;16.25;;
39410;SDS011;26579;43.238;23.124;2023-05-10T04:18:51;165.00;;;18.17;;
39410;SDS011;26579;43.238;23.124;2023-05-10T04:21:16;227.60;;;21.40;;
39410;SDS011;26579;43.238;23.124;2023-05-10T04:23:42;93.55;;;17.48;;
39410;SDS011;26579;43.238;23.124;2023-05-10T04:26:08;49.22;;;15.43;;
39410;SDS011;26579;43.238;23.124;2023-05-10T04:28:33;142.05;;;17.83;;
39410;SDS011;26579;43.238;23.124;2023-05-10T04:31:02;123.25;;;17.00;;
39410;SDS011;26579;43.238;23.124;2023-05-10T04:33:31;24.45;;;13.80;;
39410;SDS011;26579;43.238;23.124;2023-05-10T04:35:58;204.82;;;19.27;;
39410;SDS011;26579;43.238;23.124;2023-05-10T04:38:24;118.80;;;15.07;;
39410;SDS011;26579;43.238;23.124;2023-05-10T04:40:49;154.02;;;16.90;;
39410;SDS011;26579;43.238;23.124;2023-05-10T04:43:15;20.92;;;13.63;;
39410;SDS011;26579;43.238;23.124;2023-05-10T04:45:41;80.57;;;14.63;;
39410;SDS011;26579;43.238;23.124;2023-05-10T04:48:06;71.22;;;14.85;;
39410;SDS011;26579;43.238;23.124;2023-05-10T04:50:32;147.80;;;16.60;;
39410;SDS011;26579;43.238;23.124;2023-05-10T04:52:58;145.35;;;16.38;;
39410;SDS011;26579;43.238;23.124;2023-05-10T04:55:24;17.17;;;11.90;;
39410;SDS011;26579;43.238;23.124;2023-05-10T04:57:50;23.80;;;12.45;;
39410;SDS011;26579;43.238;23.124;2023-05-10T05:00:15;40.25;;;12.98;;
39410;SDS011;26579;43.238;23.124;2023-05-10T05:02:42;16.95;;;11.85;;
39410;SDS011;26579;43.238;23.124;2023-05-10T05:05:08;14.10;;;10.10;;
39410;SDS011;26579;43.238;23.124;2023-05-10T05:07:34;88.15;;;11.75;;
39410;SDS011;26579;43.238;23.124;2023-05-10T05:10:00;22.42;;;10.55;;
39410;SDS011;26579;43.238;23.124;2023-05-10T05:12:25;31.10;;;11.00;;
39410;SDS011;26579;43.238;23.124;2023-05-10T05:14:51;41.08;;;11.63;;
39410;SDS011;26579;43.238;23.124;2023-05-10T05:17:17;45.42;;;11.45;;
39410;SDS011;26579;43.238;23.124;2023-05-10T05:19:42;18.95;;;11.00;;
39410;SDS011;26579;43.238;23.124;2023-05-10T05:22:08;35.72;;;10.40;;
39410;SDS011;26579;43.238;23.124;2023-05-10T05:24:36;40.15;;;11.45;;
39410;SDS011;26579;43.238;23.124;2023-05-10T05:27:02;35.72;;;11.45;;
39410;SDS011;26579;43.238;23.124;2023-05-10T05:29:28;84.78;;;12.50;;
39410;SDS011;26579;43.238;23.124;2023-05-10T05:31:53;51.97;;;11.30;;
39410;SDS011;26579;43.238;23.124;2023-05-10T05:34:19;28.83;;;10.38;;
39410;SDS011;26579;43.238;23.124;2023-05-10T05:36:45;90.38;;;10.73;;
39410;SDS011;26579;43.238;23.124;2023-05-10T05:39:10;72.45;;;11.02;;
39410;SDS011;26579;43.238;23.124;2023-05-10T05:41:36;61.42;;;10.40;;
39410;SDS011;26579;43.238;23.124;2023-05-10T05:44:02;58.28;;;10.45;;
39410;SDS011;26579;43.238;23.124;2023-05-10T05:46:27;17.98;;;9.30;;
39410;SDS011;26579;43.238;23.124;2023-05-10T05:48:53;64.88;;;11.77;;
39410;SDS011;26579;43.238;23.124;2023-05-10T05:51:19;23.67;;;9.80;;
39410;SDS011;26579;43.238;23.124;2023-05-10T05:53:44;119.85;;;12.30;;
39410;SDS011;26579;43.238;23.124;2023-05-10T05:56:10;18.92;;;11.05;;
39410;SDS011;26579;43.238;23.124;2023-05-10T05:58:36;78.65;;;13.88;;
39410;SDS011;26579;43.238;23.124;2023-05-10T06:01:01;16.02;;;10.35;;
39410;SDS011;26579;43.238;23.124;2023-05-10T06:03:27;13.45;;;8.65;;
39410;SDS011;26579;43.238;23.124;2023-05-10T06:05:53;17.17;;;8.18;;
39410;SDS011;26579;43.238;23.124;2023-05-10T06:08:18;52.95;;;11.77;;
39410;SDS011;26579;43.238;23.124;2023-05-10T06:10:44;17.10;;;12.07;;
39410;SDS011;26579;43.238;23.124;2023-05-10T06:13:10;19.10;;;8.45;;
39410;SDS011;26579;43.238;23.124;2023-05-10T06:15:35;22.42;;;8.98;;
39410;SDS011;26579;43.238;23.124;2023-05-10T06:18:01;14.55;;;8.05;;
39410;SDS011;26579;43.238;23.124;2023-05-10T06:20:27;12.77;;;7.93;;
39410;SDS011;26579;43.238;23.124;2023-05-10T06:22:52;14.27;;;8.55;;
39410;SDS011;26579;43.238;23.124;2023-05-10T06:25:18;11.95;;;8.23;;
39410;SDS011;26579;43.238;23.124;2023-05-10T06:27:44;11.90;;;8.45;;
39410;SDS011;26579;43.238;23.124;2023-05-10T06:30:10;16.42;;;9.82;;
39410;SDS011;26579;43.238;23.124;2023-05-10T06:32:35;16.80;;;10.45;;
39410;SDS011;26579;43.238;23.124;2023-05-10T06:35:01;16.63;;;9.60;;
39410;SDS011;26579;43.238;23.124;2023-05-10T06:37:27;18.23;;;10.82;;
39410;SDS011;26579;43.238;23.124;2023-05-10T06:39:53;28.77;;;9.45;;
39410;SDS011;26579;43.238;23.124;2023-05-10T06:42:18;21.02;;;10.00;;
39410;SDS011;26579;43.238;23.124;2023-05-10T06:44:45;15.23;;;9.57;;
39410;SDS011;26579;43.238;23.124;2023-05-10T06:47:11;14.32;;;9.18;;
39410;SDS011;26579;43.238;23.124;2023-05-10T06:49:37;14.95;;;9.75;;
39410;SDS011;26579;43.238;23.124;2023-05-10T06:52:02;13.65;;;9.02;;
39410;SDS011;26579;43.238;23.124;2023-05-10T06:54:28;14.68;;;9.10;;
39410;SDS011;26579;43.238;23.124;2023-05-10T06:56:54;18.35;;;8.35;;
39410;SDS011;26579;43.238;23.124;2023-05-10T06:59:19;18.80;;;8.77;;
39410;SDS011;26579;43.238;23.124;2023-05-10T07:01:45;30.77;;;10.13;;
39410;SDS011;26579;43.238;23.124;2023-05-10T07:04:11;12.75;;;8.55;;
39410;SDS011;26579;43.238;23.124;2023-05-10T07:06:36;30.73;;;9.82;;
39410;SDS011;26579;43.238;23.124;2023-05-10T07:09:02;15.27;;;9.80;;
39410;SDS011;26579;43.238;23.124;2023-05-10T07:11:28;21.52;;;9.60;;
39410;SDS011;26579;43.238;23.124;2023-05-10T07:13:53;20.08;;;9.80;;
39410;SDS011;26579;43.238;23.124;2023-05-10T07:16:19;13.20;;;9.38;;
39410;SDS011;26579;43.238;23.124;2023-05-10T07:18:45;15.70;;;9.48;;
39410;SDS011;26579;43.238;23.124;2023-05-10T07:21:10;15.52;;;10.93;;
39410;SDS011;26579;43.238;23.124;2023-05-10T07:23:36;16.48;;;10.70;;
39410;SDS011;26579;43.238;23.124;2023-05-10T07:26:02;13.95;;;9.60;;
39410;SDS011;26579;43.238;23.124;2023-05-10T07:28:28;14.93;;;10.60;;
39410;SDS011;26579;43.238;23.124;2023-05-10T07:30:53;15.32;;;10.02;;
39410;SDS011;26579;43.238;23.124;2023-05-10T07:33:19;15.70;;;10.02;;
39410;SDS011;26579;43.238;23.124;2023-05-10T07:35:45;17.25;;;9.38;;
39410;SDS011;26579;43.238;23.124;2023-05-10T07:38:11;14.20;;;9.15;;
39410;SDS011;26579;43.238;23.124;2023-05-10T07:40:36;17.60;;;11.10;;
39410;SDS011;26579;43.238;23.124;2023-05-10T07:43:02;16.73;;;10.20;;
39410;SDS011;26579;43.238;23.124;2023-05-10T07:45:28;16.00;;;8.93;;
39410;SDS011;26579;43.238;23.124;2023-05-10T07:47:54;18.15;;;10.07;;
39410;SDS011;26579;43.238;23.124;2023-05-10T07:50:19;16.83;;;10.68;;
39410;SDS011;26579;43.238;23.124;2023-05-10T07:52:45;15.07;;;9.70;;
39410;SDS011;26579;43.238;23.124;2023-05-10T07:55:11;15.80;;;10.70;;
39410;SDS011;26579;43.238;23.124;2023-05-10T07:57:37;14.48;;;9.70;;
39410;SDS011;26579;43.238;23.124;2023-05-10T08:00:03;16.75;;;11.00;;
39410;SDS011;26579;43.238;23.124;2023-05-10T08:02:38;13.35;;;9.23;;
39410;SDS011;26579;43.238;23.124;2023-05-10T08:05:04;35.97;;;9.88;;
39410;SDS011;26579;43.238;23.124;2023-05-10T08:07:30;23.02;;;10.98;;
39410;SDS011;26579;43.238;23.124;2023-05-10T08:09:56;16.00;;;10.48;;
39410;SDS011;26579;43.238;23.124;2023-05-10T08:12:22;15.50;;;10.15;;
39410;SDS011;26579;43.238;23.124;2023-05-10T08:14:47;14.35;;;9.48;;
39410;SDS011;26579;43.238;23.124;2023-05-10T08:17:13;15.43;;;9.73;;
39410;SDS011;26579;43.238;23.124;2023-05-10T08:19:39;15.73;;;9.05;;
39410;SDS011;26579;43.238;23.124;2023-05-10T08:22:04;15.50;;;9.45;;
39410;SDS011;26579;43.238;23.124;2023-05-10T08:24:30;13.85;;;9.63;;
39410;SDS011;26579;43.238;23.124;2023-05-10T08:26:56;16.33;;;9.60;;
39410;SDS011;26579;43.238;23.124;2023-05-10T08:29:21;15.82;;;10.27;;
39410;SDS011;26579;43.238;23.124;2023-05-10T08:31:47;13.10;;;8.93;;
39410;SDS011;26579;43.238;23.124;2023-05-10T08:34:13;12.93;;;8.48;;
39410;SDS011;26579;43.238;23.124;2023-05-10T08:36:38;11.13;;;7.72;;
39410;SDS011;26579;43.238;23.124;2023-05-10T08:39:04;14.50;;;9.43;;
39410;SDS011;26579;43.238;23.124;2023-05-10T08:41:30;10.40;;;6.95;;
39410;SDS011;26579;43.238;23.124;2023-05-10T08:43:58;15.57;;;7.55;;
39410;SDS011;26579;43.238;23.124;2023-05-10T08:46:28;14.48;;;8.85;;
39410;SDS011;26579;43.238;23.124;2023-05-10T08:48:54;16.67;;;9.15;;
39410;SDS011;26579;43.238;23.124;2023-05-10T08:51:24;15.27;;;7.93;;
39410;SDS011;26579;43.238;23.124;2023-05-10T08:53:50;9.93;;;5.90;;
39410;SDS011;26579;43.238;23.124;2023-05-10T08:56:16;9.75;;;7.32;;
39410;SDS011;26579;43.238;23.124;2023-05-10T08:58:42;11.32;;;6.97;;
39410;SDS011;26579;43.238;23.124;2023-05-10T09:01:08;10.93;;;8.00;;
39410;SDS011;26579;43.238;23.124;2023-05-10T09:03:35;12.23;;;7.32;;
39410;SDS011;26579;43.238;23.124;2023-05-10T09:06:03;10.25;;;6.78;;
39410;SDS011;26579;43.238;23.124;2023-05-10T09:08:29;10.00;;;7.35;;
39410;SDS011;26579;43.238;23.124;2023-05-10T09:10:55;10.63;;;7.65;;
39410;SDS011;26579;43.238;23.124;2023-05-10T09:13:21;8.50;;;6.20;;
39410;SDS011;26579;43.238;23.124;2023-05-10T09:15:47;9.48;;;7.20;;
39410;SDS011;26579;43.238;23.124;2023-05-10T09:18:14;11.00;;;6.15;;
39410;SDS011;26579;43.238;23.124;2023-05-10T09:20:39;8.48;;;6.38;;
39410;SDS011;26579;43.238;23.124;2023-05-10T09:23:06;11.18;;;6.90;;
39410;SDS011;26579;43.238;23.124;2023-05-10T09:25:32;12.10;;;8.70;;
39410;SDS011;26579;43.238;23.124;2023-05-10T09:27:58;12.48;;;8.57;;
39410;SDS011;26579;43.238;23.124;2023-05-10T09:30:30;10.75;;;8.00;;
39410;SDS011;26579;43.238;23.124;2023-05-10T09:32:57;10.10;;;7.13;;
39410;SDS011;26579;43.238;23.124;2023-05-10T09:35:24;11.88;;;6.88;;
39410;SDS011;26579;43.238;23.124;2023-05-10T09:37:53;9.13;;;6.30;;
39410;SDS011;26579;43.238;23.124;2023-05-10T09:40:25;11.18;;;7.53;;
39410;SDS011;26579;43.238;23.124;2023-05-10T09:45:31;11.55;;;7.47;;
39410;SDS011;26579;43.238;23.124;2023-05-10T09:47:59;10.50;;;6.63;;
39410;SDS011;26579;43.238;23.124;2023-05-10T09:50:26;11.95;;;6.93;;
39410;SDS011;26579;43.238;23.124;2023-05-10T09:52:56;11.05;;;6.65;;
39410;SDS011;26579;43.238;23.124;2023-05-10T09:55:24;9.93;;;6.90;;
39410;SDS011;26579;43.238;23.124;2023-05-10T09:58:00;10.23;;;7.20;;
39410;SDS011;26579;43.238;23.124;2023-05-10T10:00:26;9.52;;;6.47;;
39410;SDS011;26579;43.238;23.124;2023-05-10T10:02:56;10.63;;;6.68;;
39410;SDS011;26579;43.238;23.124;2023-05-10T10:08:00;8.32;;;6.28;;
39410;SDS011;26579;43.238;23.124;2023-05-10T10:10:27;9.25;;;5.78;;
39410;SDS011;26579;43.238;23.124;2023-05-10T10:12:54;15.43;;;7.07;;
39410;SDS011;26579;43.238;23.124;2023-05-10T10:15:21;10.73;;;6.60;;
39410;SDS011;26579;43.238;23.124;2023-05-10T10:17:48;9.88;;;6.88;;
39410;SDS011;26579;43.238;23.124;2023-05-10T10:20:15;10.48;;;7.15;;
39410;SDS011;26579;43.238;23.124;2023-05-10T10:22:42;9.68;;;6.93;;
39410;SDS011;26579;43.238;23.124;2023-05-10T10:25:08;12.40;;;7.53;;
39410;SDS011;26579;43.238;23.124;2023-05-10T10:36:02;9.48;;;6.60;;
39410;SDS011;26579;43.238;23.124;2023-05-10T10:38:36;10.18;;;7.10;;
39410;SDS011;26579;43.238;23.124;2023-05-10T10:41:30;7.80;;;5.30;;
39410;SDS011;26579;43.238;23.124;2023-05-10T10:54:50;7.72;;;5.78;;
39410;SDS011;26579;43.238;23.124;2023-05-10T10:57:24;9.75;;;5.97;;
39410;SDS011;26579;43.238;23.124;2023-05-10T10:59:50;10.73;;;7.22;;
39410;SDS011;26579;43.238;23.124;2023-05-10T11:07:59;9.05;;;6.97;;
39410;SDS011;26579;43.238;23.124;2023-05-10T11:10:26;15.43;;;7.28;;
39410;SDS011;26579;43.238;23.124;2023-05-10T11:15:17;10.50;;;7.25;;
39410;SDS011;26579;43.238;23.124;2023-05-10T11:17:44;9.18;;;6.93;;
39410;SDS011;26579;43.238;23.124;2023-05-10T11:20:10;10.73;;;7.07;;
39410;SDS011;26579;43.238;23.124;2023-05-10T11:22:48;8.98;;;6.00;;
39410;SDS011;26579;43.238;23.124;2023-05-10T11:25:17;10.25;;;6.70;;
39410;SDS011;26579;43.238;23.124;2023-05-10T11:27:43;18.52;;;7.70;;
39410;SDS011;26579;43.238;23.124;2023-05-10T11:30:09;18.65;;;8.32;;
39410;SDS011;26579;43.238;23.124;2023-05-10T11:32:37;10.18;;;7.75;;
39410;SDS011;26579;43.238;23.124;2023-05-10T11:35:07;11.65;;;8.30;;
39410;SDS011;26579;43.238;23.124;2023-05-10T11:37:35;13.60;;;8.50;;
39410;SDS011;26579;43.238;23.124;2023-05-10T11:40:00;12.88;;;8.88;;
39410;SDS011;26579;43.238;23.124;2023-05-10T11:42:28;16.02;;;8.80;;
39410;SDS011;26579;43.238;23.124;2023-05-10T11:44:54;15.63;;;8.82;;
39410;SDS011;26579;43.238;23.124;2023-05-10T11:47:19;13.02;;;9.23;;
39410;SDS011;26579;43.238;23.124;2023-05-10T11:49:46;12.98;;;7.22;;
39410;SDS011;26579;43.238;23.124;2023-05-10T11:52:15;10.57;;;6.57;;
39410;SDS011;26579;43.238;23.124;2023-05-10T11:54:53;14.25;;;7.22;;
39410;SDS011;26579;43.238;23.124;2023-05-10T11:57:20;14.75;;;9.00;;
39410;SDS011;26579;43.238;23.124;2023-05-10T11:59:46;12.50;;;7.28;;
39410;SDS011;26579;43.238;23.124;2023-05-10T12:02:13;12.48;;;7.38;;
39410;SDS011;26579;43.238;23.124;2023-05-10T12:04:39;10.25;;;7.10;;
39410;SDS011;26579;43.238;23.124;2023-05-10T12:07:05;11.50;;;6.90;;
39410;SDS011;26579;43.238;23.124;2023-05-10T12:09:31;18.27;;;8.43;;
39410;SDS011;26579;43.238;23.124;2023-05-10T12:11:56;9.27;;;6.82;;
39410;SDS011;26579;43.238;23.124;2023-05-10T12:14:22;10.50;;;6.97;;
39410;SDS011;26579;43.238;23.124;2023-05-10T12:16:48;10.57;;;6.53;;
39410;SDS011;26579;43.238;23.124;2023-05-10T12:19:13;25.75;;;19.25;;
39410;SDS011;26579;43.238;23.124;2023-05-10T12:21:44;10.95;;;7.18;;
39410;SDS011;26579;43.238;23.124;2023-05-10T12:24:10;12.13;;;7.90;;
39410;SDS011;26579;43.238;23.124;2023-05-10T12:26:36;10.68;;;7.78;;
39410;SDS011;26579;43.238;23.124;2023-05-10T12:29:11;16.27;;;8.82;;
39410;SDS011;26579;43.238;23.124;2023-05-10T12:31:51;15.68;;;8.25;;
39410;SDS011;26579;43.238;23.124;2023-05-10T12:34:34;11.43;;;8.23;;
39410;SDS011;26579;43.238;23.124;2023-05-10T12:37:00;7.65;;;5.85;;
39410;SDS011;26579;43.238;23.124;2023-05-10T12:39:37;9.30;;;6.13;;
39410;SDS011;26579;43.238;23.124;2023-05-10T12:42:04;8.73;;;6.80;;
39410;SDS011;26579;43.238;23.124;2023-05-10T12:44:30;9.02;;;6.32;;
39410;SDS011;26579;43.238;23.124;2023-05-10T12:46:55;12.35;;;7.03;;
39410;SDS011;26579;43.238;23.124;2023-05-10T12:49:21;10.55;;;6.50;;
39410;SDS011;26579;43.238;23.124;2023-05-10T12:51:47;12.27;;;6.75;;
39410;SDS011;26579;43.238;23.124;2023-05-10T12:54:12;12.45;;;6.95;;
39410;SDS011;26579;43.238;23.124;2023-05-10T12:56:38;16.73;;;7.63;;
39410;SDS011;26579;43.238;23.124;2023-05-10T12:59:04;9.75;;;6.00;;
39410;SDS011;26579;43.238;23.124;2023-05-10T13:01:29;10.85;;;6.82;;
39410;SDS011;26579;43.238;23.124;2023-05-10T13:03:55;11.90;;;7.43;;
39410;SDS011;26579;43.238;23.124;2023-05-10T13:06:21;10.73;;;6.63;;
39410;SDS011;26579;43.238;23.124;2023-05-10T13:08:46;10.77;;;6.22;;
39410;SDS011;26579;43.238;23.124;2023-05-10T13:11:12;7.68;;;5.30;;
39410;SDS011;26579;43.238;23.124;2023-05-10T13:13:38;13.07;;;6.80;;
39410;SDS011;26579;43.238;23.124;2023-05-10T13:16:04;13.73;;;8.15;;
39410;SDS011;26579;43.238;23.124;2023-05-10T13:18:30;16.52;;;8.63;;
39410;SDS011;26579;43.238;23.124;2023-05-10T13:20:55;11.45;;;6.60;;
39410;SDS011;26579;43.238;23.124;2023-05-10T13:23:21;11.57;;;7.00;;
39410;SDS011;26579;43.238;23.124;2023-05-10T13:25:47;10.52;;;6.43;;
39410;SDS011;26579;43.238;23.124;2023-05-10T13:28:12;11.38;;;6.85;;
39410;SDS011;26579;43.238;23.124;2023-05-10T13:30:38;11.13;;;7.03;;
39410;SDS011;26579;43.238;23.124;2023-05-10T13:33:04;9.30;;;5.75;;
39410;SDS011;26579;43.238;23.124;2023-05-10T13:35:29;7.85;;;5.22;;
39410;SDS011;26579;43.238;23.124;2023-05-10T13:37:55;7.55;;;5.32;;
39410;SDS011;26579;43.238;23.124;2023-05-10T13:40:21;11.60;;;5.20;;
39410;SDS011;26579;43.238;23.124;2023-05-10T13:42:46;9.43;;;5.15;;
39410;SDS011;26579;43.238;23.124;2023-05-10T13:45:12;8.88;;;5.82;;
39410;SDS011;26579;43.238;23.124;2023-05-10T13:47:38;14.30;;;5.60;;
39410;SDS011;26579;43.238;23.124;2023-05-10T13:50:03;7.85;;;5.68;;
39410;SDS011;26579;43.238;23.124;2023-05-10T13:52:30;10.30;;;5.90;;
39410;SDS011;26579;43.238;23.124;2023-05-10T13:54:55;10.57;;;5.85;;
39410;SDS011;26579;43.238;23.124;2023-05-10T13:57:21;13.80;;;7.30;;
39410;SDS011;26579;43.238;23.124;2023-05-10T13:59:47;9.52;;;6.68;;
39410;SDS011;26579;43.238;23.124;2023-05-10T14:02:13;9.85;;;5.53;;
39410;SDS011;26579;43.238;23.124;2023-05-10T14:04:38;9.32;;;4.75;;
39410;SDS011;26579;43.238;23.124;2023-05-10T14:07:04;9.48;;;6.63;;
39410;SDS011;26579;43.238;23.124;2023-05-10T14:09:30;12.65;;;7.00;;
39410;SDS011;26579;43.238;23.124;2023-05-10T14:11:56;10.52;;;6.95;;
39410;SDS011;26579;43.238;23.124;2023-05-10T14:14:21;10.77;;;6.25;;
39410;SDS011;26579;43.238;23.124;2023-05-10T14:16:47;9.55;;;5.80;;
39410;SDS011;26579;43.238;23.124;2023-05-10T14:19:12;9.50;;;6.95;;
39410;SDS011;26579;43.238;23.124;2023-05-10T14:21:38;12.07;;;6.65;;
39410;SDS011;26579;43.238;23.124;2023-05-10T14:24:04;10.18;;;7.07;;
39410;SDS011;26579;43.238;23.124;2023-05-10T14:26:30;13.95;;;9.13;;
39410;SDS011;26579;43.238;23.124;2023-05-10T14:28:56;11.95;;;7.32;;
39410;SDS011;26579;43.238;23.124;2023-05-10T14:31:21;12.00;;;7.65;;
39410;SDS011;26579;43.238;23.124;2023-05-10T14:33:47;11.63;;;6.90;;
39410;SDS011;26579;43.238;23.124;2023-05-10T14:36:13;19.63;;;8.57;;
39410;SDS011;26579;43.238;23.124;2023-05-10T14:38:39;14.07;;;9.25;;
39410;SDS011;26579;43.238;23.124;2023-05-10T14:41:05;12.27;;;7.82;;
39410;SDS011;26579;43.238;23.124;2023-05-10T14:43:31;13.40;;;7.32;;
39410;SDS011;26579;43.238;23.124;2023-05-10T14:45:56;14.60;;;8.52;;
39410;SDS011;26579;43.238;23.124;2023-05-10T14:48:22;12.80;;;8.90;;
39410;SDS011;26579;43.238;23.124;2023-05-10T14:50:48;18.60;;;10.13;;
39410;SDS011;26579;43.238;23.124;2023-05-10T14:53:13;12.25;;;6.85;;
39410;SDS011;26579;43.238;23.124;2023-05-10T14:55:39;14.63;;;9.43;;
39410;SDS011;26579;43.238;23.124;2023-05-10T14:58:05;16.60;;;11.25;;
39410;SDS011;26579;43.238;23.124;2023-05-10T15:00:30;16.10;;;9.65;;
39410;SDS011;26579;43.238;23.124;2023-05-10T15:02:56;15.32;;;8.48;;
39410;SDS011;26579;43.238;23.124;2023-05-10T15:05:22;20.02;;;11.52;;